Latest Weather Observations for Charlton

IDV60801

Issued at 9:32 am EST Tuesday 26 September 2017 (issued every 30 minutes, with the page automatically refreshed every 10 minutes)

About weather observations | Map of weather stations | Latest weather observations for VIC | Other Formats
Station Details ID: 080128 Name: CHARLTON Lat: -36.28 Lon: 143.33 Height: 131.7 m
Data from the previous 72 hours. | See also: Recent months at Charlton
Date/Time
EST
Temp
°C
App
Temp
°C
Dew
Point
°C
Rel
Hum
%
Delta-T
°C
Wind Press
QNH
hPa
Press
MSL
hPa
Rain since
9am
mm
Dir  Spd
km/h
Gust
km/h
Spd
kts
Gust
kts
26/09:30am 12.2 8.7 3.4 55 3.9 NE 11 15 6 8 1018.6 1018.6 0.0
26/09:00am 11.7 8.2 5.3 65 3.0 ESE 13 17 7 9 1018.6 1018.6 0.0
26/08:30am 9.4 7.1 5.8 78 1.7 E 7 13 4 7 1018.5 1018.5 0.0
26/08:00am 7.1 5.1 6.4 95 0.3 ESE 6 7 3 4 1018.1 1018.2 0.0
26/07:30am 4.3 3.0 4.2 99 0.0 CALM 0 0 0 0 1018.0 1018.1 0.0
26/07:00am 0.7 -1.2 0.6 99 0.0 CALM 0 0 0 0 1017.9 1018.0 0.0
26/06:30am -1.2 -3.4 -1.3 99 0.0 CALM 0 0 0 0 1017.7 1017.8 0.0
26/06:00am -0.7 -2.8 -0.8 99 0.0 CALM 0 0 0 0 1017.8 1017.9 0.0
26/05:30am -0.7 -2.8 -0.8 99 0.0 CALM 0 0 0 0 1017.5 1017.6 0.0
26/05:00am -0.2 -2.2 -0.3 99 0.0 CALM 0 0 0 0 1017.2 1017.3 0.0
26/04:30am 0.4 -1.5 0.3 99 0.0 CALM 0 0 0 0 1017.0 1017.1 0.0
26/04:00am 0.4 -1.5 0.3 99 0.0 CALM 0 0 0 0 1016.9 1017.0 0.0
26/03:30am 1.2 -0.6 1.1 99 0.0 CALM 0 0 0 0 1017.0 1017.1 0.0
26/03:00am 1.5 -0.3 1.4 99 0.0 CALM 0 0 0 0 1016.7 1016.8 0.0
26/02:30am 1.9 0.2 1.6 98 0.1 CALM 0 0 0 0 1016.8 1016.9 0.0
26/02:00am 2.3 0.6 2.0 98 0.1 CALM 0 0 0 0 1016.7 1016.8 0.0
26/01:30am 3.2 1.7 2.9 98 0.1 CALM 0 0 0 0 1016.7 1016.8 0.0
26/01:00am 3.8 2.4 3.5 98 0.1 CALM 0 0 0 0 1016.6 1016.7 0.0
26/12:30am 4.1 2.7 3.5 96 0.2 CALM 0 0 0 0 1016.5 1016.6 0.0
26/12:00am 4.3 2.9 3.4 94 0.4 CALM 0 0 0 0 1016.1 1016.2 0.0
 
Date/Time
EST
Temp
°C
App
Temp
°C
Dew
Point
°C
Rel
Hum
%
Delta-T
°C
Wind Press
QNH
hPa
Press
MSL
hPa
Rain since
9am
mm
Dir  Spd
km/h
Gust
km/h
Spd
kts
Gust
kts
25/11:30pm 4.5 1.9 3.0 90 0.6 SSE 6 7 3 4 1016.0 1016.1 0.0
25/11:00pm 5.0 2.2 3.2 88 0.7 SSE 7 9 4 5 1015.9 1016.0 0.0
25/10:30pm 5.5 2.9 3.2 85 1.0 S 6 9 3 5 1015.9 1016.0 0.0
25/10:00pm 6.2 3.9 2.8 79 1.4 SW 4 7 2 4 1015.7 1015.8 0.0
25/09:30pm 7.3 4.6 3.9 79 1.5 SW 7 9 4 5 1015.5 1015.6 0.0
25/09:00pm 8.7 6.1 4.3 74 1.9 SW 7 15 4 8 1015.1 1015.1 0.0
25/08:30pm 8.9 6.3 4.3 73 2.0 SW 7 11 4 6 1014.8 1014.8 0.0
25/08:00pm 9.4 7.0 4.4 71 2.2 SW 6 9 3 5 1014.3 1014.3 0.0
25/07:30pm 10.1 7.6 4.9 70 2.4 WSW 7 13 4 7 1013.9 1013.9 0.0
25/07:00pm 11.2 8.9 4.9 65 2.9 SW 6 9 3 5 1013.5 1013.5 0.0
25/06:30pm 12.6 10.2 5.1 60 3.5 SW 7 11 4 6 1013.2 1013.2 0.0
25/06:00pm 14.1 11.4 5.5 56 4.1 SW 9 17 5 9 1012.8 1012.8 0.0
25/05:30pm 15.2 11.6 4.9 50 4.9 SW 13 22 7 12 1012.4 1012.4 0.0
25/05:00pm 15.7 11.6 4.1 46 5.4 SW 15 24 8 13 1012.2 1012.2 0.0
25/04:30pm 17.1 13.1 5.1 45 5.8 WSW 15 28 8 15 1011.9 1011.9 0.0
25/04:00pm 16.4 12.3 4.1 44 5.8 WSW 15 26 8 14 1011.7 1011.7 0.0
25/03:30pm 18.5 13.8 5.0 41 6.6 W 19 30 10 16 1011.5 1011.5 0.0
25/03:00pm 18.3 13.8 6.2 45 6.0 WSW 19 32 10 17 1011.5 1011.5 0.0
25/02:30pm 16.9 11.8 4.3 43 6.0 WSW 20 39 11 21 1011.7 1011.7 0.0
25/02:00pm 18.2 12.8 4.7 41 6.5 WSW 22 35 12 19 1011.5 1011.5 0.0
25/01:30pm 17.6 12.5 5.9 46 5.7 WSW 22 46 12 25 1011.5 1011.5 0.0
25/01:00pm 16.7 12.4 7.1 53 4.8 WSW 19 32 10 17 1011.5 1011.5 0.0
25/12:30pm 16.8 12.4 7.2 53 4.8 WSW 20 33 11 18 1011.4 1011.4 0.0
25/12:00pm 16.8 11.8 6.6 51 5.1 W 22 32 12 17 1011.5 1011.5 0.0
25/11:30am 16.1 11.7 7.6 57 4.3 W 20 30 11 16 1011.5 1011.5 0.0
25/11:00am 14.3 9.3 6.6 60 3.8 WSW 22 32 12 17 1011.4 1011.4 0.0
25/10:30am 13.7 9.9 7.5 66 3.1 WSW 17 28 9 15 1011.3 1011.3 0.0
25/10:00am 14.2 10.1 8.6 69 2.8 W 20 33 11 18 1011.3 1011.3 0.0
25/09:30am 13.2 9.3 8.7 74 2.3 W 19 33 10 18 1011.3 1011.3 0.0
25/09:00am 11.7 8.5 9.9 89 0.9 W 17 28 9 15 1010.9 1010.9 0.0
25/08:30am 9.9 7.1 9.9 100 0.0 WNW 15 24 8 13 1010.7 1010.7 0.0
25/08:00am 8.5 5.7 8.4 99 0.0 NW 13 20 7 11 1010.1 1010.2 0.0
25/07:30am 8.7 6.3 8.6 99 0.0 NW 11 17 6 9 1009.5 1009.6 0.0
25/07:00am 8.6 5.8 8.5 99 0.0 W 13 20 7 11 1009.0 1009.1 0.0
25/06:30am 8.0 5.4 7.9 99 0.0 W 11 17 6 9 1008.2 1008.2 0.0
25/06:00am 8.3 5.0 8.2 99 0.0 W 15 24 8 13 1007.6 1007.6 0.0
25/05:30am 8.1 5.6 8.0 99 0.0 W 11 20 6 11 1007.3 1007.3 0.0
25/05:00am 7.9 5.3 7.8 99 0.0 W 11 19 6 10 1007.2 1007.2 0.0
25/04:30am 7.9 4.9 7.8 99 0.0 W 13 17 7 9 1007.0 1007.0 0.0
25/04:00am 7.9 5.7 7.8 99 0.0 W 9 15 5 8 1006.8 1006.8 0.0
25/03:30am 8.2 6.1 8.1 99 0.0 WNW 9 13 5 7 1006.7 1006.7 0.0
25/03:00am 8.9 6.5 8.5 97 0.2 WNW 11 19 6 10 1006.7 1006.7 0.0
25/02:30am 9.4 5.9 8.6 95 0.4 WNW 17 24 9 13 1006.5 1006.5 0.0
25/02:00am 9.6 6.1 8.8 95 0.4 W 17 28 9 15 1007.0 1007.0 0.0
25/01:30am 9.9 6.4 8.7 92 0.6 W 17 28 9 15 1007.1 1007.1 0.0
25/01:00am 10.4 6.5 8.7 89 0.8 W 19 30 10 16 1006.9 1006.9 0.0
25/12:30am 10.7 7.2 8.6 87 1.0 WNW 17 28 9 15 1007.0 1007.0 0.0
25/12:00am 10.9 7.3 8.5 85 1.2 WNW 17 24 9 13 1007.0 1007.0 0.0
 
Date/Time
EST
Temp
°C
App
Temp
°C
Dew
Point
°C
Rel
Hum
%
Delta-T
°C
Wind Press
QNH
hPa
Press
MSL
hPa
Rain since
9am
mm
Dir  Spd
km/h
Gust
km/h
Spd
kts
Gust
kts
24/11:30pm 11.4 7.9 8.8 84 1.3 WNW 17 28 9 15 1007.1 1007.1 0.0
24/11:00pm 11.9 8.3 8.4 79 1.7 W 17 30 9 16 1007.0 1007.0 0.0
24/10:30pm 11.9 7.5 7.6 75 2.1 WNW 20 33 11 18 1006.8 1006.8 0.0
24/10:00pm 12.2 7.8 7.3 72 2.4 WNW 20 33 11 18 1006.5 1006.5 0.0
24/09:30pm 12.2 8.7 7.1 71 2.5 W 15 28 8 15 1006.1 1006.1 0.0
24/09:00pm 12.3 8.7 6.8 69 2.7 W 15 22 8 12 1005.8 1005.8 0.0
24/08:30pm 13.1 9.2 6.9 66 3.0 W 17 30 9 16 1005.3 1005.3 0.0
24/08:00pm 13.7 9.2 7.0 64 3.3 W 20 32 11 17 1005.0 1005.0 0.0
24/07:30pm 14.3 10.9 5.7 56 4.1 W 13 24 7 13 1004.1 1004.1 0.0
24/07:00pm 14.8 10.6 5.9 55 4.3 WNW 17 28 9 15 1003.3 1003.3 0.0
24/06:30pm 14.8 10.2 5.6 54 4.4 WNW 19 28 10 15 1002.7 1002.7 0.0
24/06:00pm 16.2 10.9 5.2 48 5.3 W 22 39 12 21 1002.2 1002.2 0.0
24/05:30pm 17.2 11.3 3.8 41 6.3 W 24 41 13 22 1001.8 1001.8 0.0
24/05:00pm 17.8 11.3 2.9 37 6.9 WNW 26 41 14 22 1001.3 1001.3 0.0
24/04:33pm 17.8 10.7 3.7 39 6.6 NW 30 48 16 26 1001.1 1001.1 0.0
24/04:30pm 17.9 10.5 3.8 39 6.7 NW 32 48 17 26 1001.0 1001.0 0.0
24/04:00pm 17.9 10.9 4.1 40 6.6 WNW 30 52 16 28 1000.9 1000.9 0.0
24/03:37pm 18.7 11.9 2.9 35 7.4 NW 28 46 15 25 1000.8 1000.8 0.0
24/03:30pm 19.4 13.0 3.2 34 7.6 NW 26 43 14 23 1000.7 1000.7 0.0
24/03:11pm 20.2 13.5 3.4 33 8.0 WNW 28 46 15 25 1000.8 1000.8 0.0
24/03:00pm 18.9 12.3 2.3 33 7.7 WNW 26 52 14 28 1000.9 1000.9 0.0
24/02:30pm 18.6 12.1 2.4 34 7.5 WNW 26 43 14 23 1000.9 1000.9 0.0
24/02:00pm 18.8 11.2 3.0 35 7.4 NW 32 59 17 32 1001.2 1001.2 0.0
24/01:30pm 19.4 11.9 3.2 34 7.6 NW 32 52 17 28 1001.3 1001.3 0.0
24/01:00pm 19.6 12.5 3.7 35 7.6 NW 30 48 16 26 1001.5 1001.5 0.0
24/12:30pm 18.5 12.1 5.0 41 6.6 NW 28 46 15 25 1001.9 1001.9 0.0
24/12:08pm 18.7 11.6 5.5 42 6.5 NW 32 54 17 29 1002.1 1002.1 0.0
24/12:00pm 17.7 10.9 5.3 44 6.1 WNW 30 46 16 25 1002.2 1002.2 0.0
24/11:37am 17.4 11.2 6.3 48 5.5 WNW 28 46 15 25 1002.2 1002.2 0.0
24/11:30am 16.0 9.2 5.0 48 5.2 WNW 30 46 16 25 1002.4 1002.4 0.0
24/11:28am 16.3 9.9 5.0 47 5.4 NW 28 46 15 25 1002.3 1002.3 0.0
24/11:00am 15.7 9.4 5.9 52 4.8 NW 28 43 15 23 1002.6 1002.6 0.0
24/10:30am 16.1 9.9 6.3 52 4.8 WNW 28 44 15 24 1002.9 1002.9 0.0
24/10:00am 15.5 10.4 7.8 60 3.9 NW 24 39 13 21 1002.9 1002.9 0.0
24/09:30am 15.0 10.4 8.0 63 3.5 WNW 22 35 12 19 1002.9 1002.9 0.0
24/09:00am 14.3 9.7 8.3 67 3.0 WNW 22 41 12 22 1003.1 1003.1 0.0
24/08:30am 13.4 8.8 8.3 71 2.6 NW 22 37 12 20 1003.0 1003.0 0.0
24/08:00am 11.9 7.8 8.0 77 1.9 NW 19 32 10 17 1002.7 1002.7 0.0
24/07:30am 10.3 6.1 7.4 82 1.4 NW 19 30 10 16 1002.3 1002.3 0.0
24/07:00am 9.2 5.8 7.5 89 0.8 NW 15 24 8 13 1002.0 1002.0 0.0
24/06:30am 8.5 5.4 7.4 93 0.5 NNW 13 20 7 11 1001.4 1001.4 0.0
24/06:00am 7.8 4.7 7.1 95 0.3 NNW 13 19 7 10 1001.3 1001.3 0.0
24/05:30am 8.0 5.2 7.1 94 0.4 NNW 11 17 6 9 1001.1 1001.1 0.0
24/05:00am 8.7 5.7 7.5 92 0.6 NW 13 22 7 12 1001.2 1001.2 0.0
24/04:30am 9.1 6.5 7.9 92 0.6 NNW 11 17 6 9 1000.7 1000.7 0.0
24/04:00am 9.0 6.4 7.6 91 0.7 NNW 11 15 6 8 1001.4 1001.4 0.0
24/03:30am 9.1 6.2 8.0 93 0.5 NW 13 19 7 10 1001.4 1001.4 0.0
24/03:00am 8.8 6.6 7.7 93 0.5 NW 9 13 5 7 1001.8 1001.8 0.0
24/02:30am 8.6 6.3 7.4 92 0.6 NW 9 13 5 7 1002.0 1002.0 0.0
24/02:00am 8.8 6.4 7.1 89 0.8 NW 9 17 5 9 1002.3 1002.3 0.0
24/01:30am 9.1 6.4 7.2 88 0.9 WNW 11 15 6 8 1002.6 1002.6 0.0
24/01:00am 9.2 6.0 7.0 86 1.0 WNW 13 20 7 11 1002.4 1002.4 0.0
24/12:30am 9.1 6.6 6.4 83 1.3 NW 9 13 5 7 1002.2 1002.2 0.0
24/12:00am 10.0 7.5 6.5 79 1.7 WNW 9 15 5 8 1002.3 1002.3 0.0
 
Date/Time
EST
Temp
°C
App
Temp
°C
Dew
Point
°C
Rel
Hum
%
Delta-T
°C
Wind Press
QNH
hPa
Press
MSL
hPa
Rain since
9am
mm
Dir  Spd
km/h
Gust
km/h
Spd
kts
Gust
kts
23/11:30pm 10.8 8.1 7.5 80 1.6 WNW 11 15 6 8 1002.3 1002.3 0.0
23/11:00pm 11.2 8.9 7.5 78 1.8 NW 9 13 5 7 1002.3 1002.3 0.0
23/10:30pm 12.4 9.4 7.7 73 2.3 W 13 20 7 11 1002.2 1002.2 0.0
23/10:00pm 13.2 9.7 7.0 66 3.0 W 15 24 8 13 1001.9 1001.9 0.0
23/09:30pm 14.1 9.2 6.7 61 3.6 W 22 35 12 19 1001.4 1001.4 0.0
23/09:00pm 15.1 10.2 6.9 58 4.1 W 22 33 12 18 1001.2 1001.2 0.0
23/08:30pm 15.5 10.1 6.5 55 4.4 WSW 24 35 13 19 1000.8 1000.8 0.0
23/08:00pm 15.9 10.4 6.1 52 4.8 WSW 24 37 13 20 1000.2 1000.2 0.0
23/07:30pm 16.8 10.4 5.1 46 5.6 W 28 50 15 27 999.6 999.6 0.0
23/07:00pm 18.0 12.0 8.6 54 4.9 W 30 48 16 26 999.2 999.2 0.0
23/06:55pm 18.2 12.7 9.0 55 4.8 W 28 48 15 26 999.1 999.1 0.0
23/06:30pm 19.0 14.2 8.9 52 5.3 WSW 24 43 13 23 998.4 998.4 0.0
23/06:00pm 20.2 15.1 9.2 49 5.9 W 26 50 14 27 997.8 997.8 0.0
23/05:30pm 22.0 16.4 8.9 43 7.0 W 28 50 15 27 996.9 996.9 0.0
23/05:00pm 23.7 17.1 8.6 38 8.2 W 33 59 18 32 995.9 995.8 0.0
23/04:30pm 25.9 19.0 8.8 34 9.3 W 35 59 19 32 994.7 994.6 0.0
23/04:14pm 26.9 19.4 7.9 30 10.3 WNW 37 69 20 37 994.3 994.3 0.0
23/04:00pm 28.3 19.0 5.2 23 12.1 WNW 43 67 23 36 993.6 993.6 0.0
23/03:30pm 29.3 21.5 6.7 24 12.1 WNW 37 57 20 31 993.2 993.2 0.0
23/03:00pm 29.8 22.7 8.2 26 12.0 WNW 35 57 19 31 993.1 993.1 0.0
23/02:30pm 30.5 21.9 6.4 22 12.9 WNW 41 65 22 35 992.7 992.7 0.0
23/02:00pm 31.4 23.5 4.2 18 14.3 WNW 35 59 19 32 992.3 992.3 0.0
23/01:30pm 31.9 24.1 3.0 16 14.8 WNW 33 61 18 33 991.9 991.9 0.0
23/01:09pm 33.8 27.3 4.5 16 15.5 NW 28 54 15 29 991.6 991.6 0.0
23/01:00pm 32.8 26.5 3.7 16 15.3 WNW 26 54 14 29 991.7 991.7 0.0
23/12:30pm 33.2 26.7 4.9 17 15.1 NW 28 50 15 27 991.9 991.9 0.0
23/12:08pm 32.5 25.9 4.3 17 14.8 NNW 28 50 15 27 992.3 992.3 0.0
23/12:00pm 31.7 25.5 6.0 20 13.9 NNW 28 43 15 23 992.5 992.5 0.0
23/11:38am 29.9 23.4 4.5 20 13.2 NNW 28 46 15 25 993.0 993.0 0.0
23/11:30am 30.4 25.0 6.3 22 12.9 NNW 24 39 13 21 993.2 993.2 0.0
23/11:00am 28.3 23.4 5.2 23 12.1 NNW 20 35 11 19 993.9 993.9 0.0
23/10:30am 26.6 23.0 6.6 28 10.5 N 15 26 8 14 994.5 994.5 0.0
23/10:00am 25.2 21.5 6.4 30 9.9 N 15 24 8 13 995.3 995.2 0.0

Other Formats:

Comma delimited format used in spreadsheet applications
http://www.bom.gov.au/fwo/IDV60801/IDV60801.94839.axf

JavaScript Object Notation format (JSON) in row-major order
http://www.bom.gov.au/fwo/IDV60801/IDV60801.94839.json